PWSweather.com
Personal Weather Stations
Station Observations
IMAZOWIE6
WarszawaPL

WarszawaPL

Lat: 52.27957, Lon: 21.05489

Elevation: 100

Station Type: WS1080

http://stacjapogody.waw.pl/

Latest ConditionsUpdated 6:18:05 AM GMT+01:01 Friday, Jun 23, 2017
Currently Today's Max Today's Min Today's Average
Temperature 68.7°F20.4°C 69.3°F20.7°C 65.5°F18.6°C 67.6°F19.8°C
Dew Point -165.9°F-109.9°C -165.9°F-109.9°C -166.3°F-110.2°C -166.0°F-110.0°C
Winds Calm Calm 1.4 mph 2.3 kmh - 0.2 mph 0.3 kmh
Wind Gusts 2.8 mph4.5 kmh 3.4 mph5.5 kmh - -
Humidity - 0% 0% 0%
Pressure 29.26 in990.9 mb 29.36 in994.2 mb 29.26 in990.9 mb -
Hour Temp Dew Point Humidity Winds Wind Gusts Pressure Precip Precip Rate Daily Precip Total
06:18 AM 68.7°F20.4°C -165.9°F-109.9°C - Calm Calm 2.8 mph4.5 kmh 29.26 in990.9 mb 0.00 in0.0 mm 0.00 in0.0 mm 0.00 in0.0 mm
06:02 AM 68.7°F20.4°C -165.9°F-109.9°C - Calm Calm 2.0 mph3.2 kmh 29.26 in990.9 mb 0.00 in0.0 mm 0.00 in0.0 mm 0.00 in0.0 mm
05:51 AM 68.9°F20.5°C -165.9°F-109.9°C - 1.4 mph N2.3 kmh N 3.4 mph5.5 kmh 29.26 in990.9 mb 0.00 in0.0 mm 0.00 in0.0 mm 0.00 in0.0 mm
05:35 AM 69.3°F20.7°C -165.9°F-109.9°C - 0.6 mph N1.0 kmh N 2.0 mph3.2 kmh 29.26 in990.9 mb 0.00 in0.0 mm 0.00 in0.0 mm 0.00 in0.0 mm
05:19 AM 69.3°F20.7°C -165.9°F-109.9°C - Calm Calm -- 29.26 in990.9 mb 0.00 in0.0 mm 0.00 in0.0 mm 0.00 in0.0 mm
05:03 AM 68.7°F20.4°C -165.9°F-109.9°C - Calm Calm -- 29.26 in990.9 mb 0.00 in0.0 mm 0.00 in0.0 mm 0.00 in0.0 mm
04:47 AM 67.8°F19.9°C -166.0°F-110.0°C - Calm Calm -- 29.26 in990.9 mb 0.00 in0.0 mm 0.00 in0.0 mm 0.00 in0.0 mm
04:37 AM 67.8°F19.9°C -166.0°F-110.0°C - Calm Calm -- 29.27 in991.2 mb 0.00 in0.0 mm 0.00 in0.0 mm 0.00 in0.0 mm
04:21 AM 67.6°F19.8°C -166.0°F-110.0°C - Calm Calm -- 29.27 in991.2 mb 0.00 in0.0 mm 0.00 in0.0 mm 0.00 in0.0 mm
04:04 AM 67.6°F19.8°C -166.0°F-110.0°C - Calm Calm 0.6 mph1.0 kmh 29.29 in991.9 mb 0.00 in0.0 mm 0.00 in0.0 mm 0.00 in0.0 mm
03:49 AM 67.8°F19.9°C -166.0°F-110.0°C - Calm Calm -- 29.28 in991.5 mb 0.00 in0.0 mm 0.00 in0.0 mm 0.00 in0.0 mm
03:33 AM 67.6°F19.8°C -166.0°F-110.0°C - 0.6 mph N1.0 kmh N 2.0 mph3.2 kmh 29.29 in991.9 mb 0.00 in0.0 mm 0.00 in0.0 mm 0.00 in0.0 mm
03:17 AM 67.6°F19.8°C -166.0°F-110.0°C - 0.6 mph N1.0 kmh N 2.0 mph3.2 kmh 29.30 in992.2 mb 0.00 in0.0 mm 0.00 in0.0 mm 0.00 in0.0 mm
03:06 AM 67.5°F19.7°C -166.1°F-110.1°C - Calm Calm 2.0 mph3.2 kmh 29.30 in992.2 mb 0.00 in0.0 mm 0.00 in0.0 mm 0.00 in0.0 mm
02:50 AM 67.3°F19.6°C -166.1°F-110.1°C - 1.4 mph N2.3 kmh N 2.8 mph4.5 kmh 29.30 in992.2 mb 0.00 in0.0 mm 0.00 in0.0 mm 0.00 in0.0 mm
02:34 AM 66.2°F19.0°C -166.2°F-110.1°C - Calm Calm 1.4 mph2.3 kmh 29.30 in992.2 mb 0.00 in0.0 mm 0.00 in0.0 mm 0.00 in0.0 mm
02:18 AM 65.5°F18.6°C -166.3°F-110.2°C - Calm Calm 1.4 mph2.3 kmh 29.30 in992.2 mb 0.00 in0.0 mm 0.00 in0.0 mm 0.00 in0.0 mm
02:02 AM 65.7°F18.7°C -166.2°F-110.1°C - Calm Calm 0.6 mph1.0 kmh 29.31 in992.6 mb 0.00 in0.0 mm 0.00 in0.0 mm 0.00 in0.0 mm
01:51 AM 66.2°F19.0°C -166.2°F-110.1°C - Calm Calm 0.6 mph1.0 kmh 29.31 in992.6 mb 0.00 in0.0 mm 0.00 in0.0 mm 0.00 in0.0 mm
01:35 AM 67.1°F19.5°C -166.1°F-110.1°C - Calm Calm -- 29.31 in992.6 mb 0.00 in0.0 mm 0.00 in0.0 mm 0.00 in0.0 mm
01:19 AM 67.3°F19.6°C -166.1°F-110.1°C - Calm Calm 0.6 mph1.0 kmh 29.33 in993.2 mb 0.00 in0.0 mm 0.00 in0.0 mm 0.00 in0.0 mm
01:03 AM 67.3°F19.6°C -166.1°F-110.1°C - Calm Calm 0.6 mph1.0 kmh 29.34 in993.6 mb 0.00 in0.0 mm 0.00 in0.0 mm 0.00 in0.0 mm
12:47 AM 67.6°F19.8°C -166.0°F-110.0°C - Calm Calm 0.6 mph1.0 kmh 29.35 in993.9 mb 0.00 in0.0 mm 0.00 in0.0 mm 0.00 in0.0 mm
12:37 AM 67.6°F19.8°C -166.0°F-110.0°C - Calm Calm 0.6 mph1.0 kmh 29.35 in993.9 mb 0.00 in0.0 mm 0.00 in0.0 mm 0.00 in0.0 mm
12:21 AM 67.5°F19.7°C -166.1°F-110.1°C - Calm Calm -- 29.35 in993.9 mb 0.00 in0.0 mm 0.00 in0.0 mm 0.00 in0.0 mm
12:05 AM 67.8°F19.9°C -166.0°F-110.0°C - Calm Calm 1.4 mph2.3 kmh 29.36 in994.2 mb 0.00 in0.0 mm 0.00 in0.0 mm 0.00 in0.0 mm